Time;durP1;ratioP1;P1;durP2;ratioP2;P2;SDS_P1;SDS_P2;PMS_P1;PMS_P2;Temp;Humidity;BMP_temperature;BMP_pressure;BME280_temperature;BME280_humidity;BME280_pressure;Samples;Min_cycle;Max_cycle;Signal;HPM_P1;HPM_P2
2022/12/20 00:02:07;;;;;;;20.30;11.07;;;;;;;;;;4999435;28;20080;-66
2022/12/20 00:04:32;;;;;;;17.90;10.55;;;;;;;;;;5015977;28;20052;-65
2022/12/20 00:06:58;;;;;;;18.90;10.38;;;;;;;;;;5000384;28;20042;-66
2022/12/20 00:09:24;;;;;;;20.30;10.77;;;;;;;;;;4999015;28;20073;-66
2022/12/20 00:11:50;;;;;;;21.63;10.32;;;;;;;;;;5000590;28;20107;-66
2022/12/20 00:14:16;;;;;;;20.38;12.18;;;;;;;;;;5000154;28;20042;-65
2022/12/20 00:16:41;;;;;;;25.33;12.50;;;;;;;;;;5000582;28;20486;-66
2022/12/20 00:19:09;;;;;;;16.67;10.65;;;;;;;;;;5002276;28;20177;-65
2022/12/20 00:21:36;;;;;;;20.65;10.85;;;;;;;;;;5004471;28;20050;-65
2022/12/20 00:24:02;;;;;;;19.80;11.07;;;;;;;;;;5005045;28;20041;-66
2022/12/20 00:26:29;;;;;;;20.83;11.95;;;;;;;;;;5004073;28;20144;-66
2022/12/20 00:28:55;;;;;;;22.55;11.98;;;;;;;;;;5004172;28;20054;-66
2022/12/20 00:31:23;;;;;;;21.52;12.02;;;;;;;;;;5010192;28;20044;-66
2022/12/20 00:33:50;;;;;;;23.65;11.93;;;;;;;;;;5004374;28;20050;-66
2022/12/20 00:36:17;;;;;;;21.25;10.77;;;;;;;;;;5003245;28;20531;-66
2022/12/20 00:38:46;;;;;;;20.70;11.73;;;;;;;;;;5006745;28;21123;-66
2022/12/20 00:41:15;;;;;;;23.67;12.68;;;;;;;;;;5002808;28;20050;-67
2022/12/20 00:43:41;;;;;;;22.77;12.07;;;;;;;;;;5019518;28;20057;-66
2022/12/20 00:46:14;;;;;;;20.27;11.27;;;;;;;;;;5001583;28;20060;-67
2022/12/20 00:48:39;;;;;;;21.73;12.23;;;;;;;;;;5003190;28;20072;-65
2022/12/20 00:51:09;;;;;;;19.83;11.40;;;;;;;;;;5003525;28;20913;-65
2022/12/20 00:53:35;;;;;;;19.83;11.18;;;;;;;;;;5018738;28;20044;-65
2022/12/20 00:56:02;;;;;;;20.80;11.52;;;;;;;;;;5018786;28;20042;-65
2022/12/20 00:58:27;;;;;;;22.90;11.68;;;;;;;;;;5017292;28;20446;-65
2022/12/20 01:00:53;;;;;;;20.55;11.65;;;;;;;;;;5003720;28;20042;-63
2022/12/20 01:03:19;;;;;;;19.92;12.18;;;;;;;;;;5001762;28;20049;-65
2022/12/20 01:05:52;;;;;;;23.67;11.60;;;;;;;;;;5019116;28;20071;-66
2022/12/20 01:08:18;;;;;;;20.05;11.23;;;;;;;;;;5010416;28;20041;-65
2022/12/20 01:10:44;;;;;;;25.20;12.25;;;;;;;;;;5019206;28;20054;-66
2022/12/20 01:13:09;;;;;;;20.83;11.63;;;;;;;;;;5017355;28;20068;-65
2022/12/20 01:15:35;;;;;;;22.77;12.43;;;;;;;;;;5019454;28;20046;-66
2022/12/20 01:18:00;;;;;;;23.92;12.82;;;;;;;;;;5003642;28;20053;-66
2022/12/20 01:20:26;;;;;;;18.00;10.50;;;;;;;;;;5018703;28;20045;-66
2022/12/20 01:22:52;;;;;;;22.35;12.82;;;;;;;;;;5016246;28;20049;-66
2022/12/20 01:25:17;;;;;;;17.35;10.27;;;;;;;;;;4999148;28;20037;-64
2022/12/20 01:27:43;;;;;;;25.00;12.38;;;;;;;;;;5000837;28;20041;-65
2022/12/20 01:30:09;;;;;;;22.25;12.15;;;;;;;;;;5013836;28;20069;-65
2022/12/20 01:32:35;;;;;;;27.35;13.45;;;;;;;;;;4999196;28;20049;-65
2022/12/20 01:35:00;;;;;;;26.17;13.48;;;;;;;;;;5016273;28;20049;-64
2022/12/20 01:37:26;;;;;;;21.25;12.15;;;;;;;;;;5003113;28;20046;-65
2022/12/20 01:39:51;;;;;;;22.40;12.90;;;;;;;;;;5017956;28;20045;-65
2022/12/20 01:42:16;;;;;;;26.10;12.73;;;;;;;;;;5001321;28;20129;-64
2022/12/20 01:44:42;;;;;;;28.83;14.77;;;;;;;;;;5001736;28;20050;-64
2022/12/20 01:47:08;;;;;;;21.02;12.48;;;;;;;;;;5017644;28;20046;-65
2022/12/20 01:49:45;;;;;;;25.45;12.23;;;;;;;;;;5002281;28;20049;-65
2022/12/20 01:52:18;;;;;;;23.38;12.43;;;;;;;;;;5001529;28;20452;-64
2022/12/20 01:55:02;;;;;;;23.63;11.77;;;;;;;;;;5017764;28;20141;-64
2022/12/20 01:58:00;;;;;;;21.83;11.50;;;;;;;;;;5001266;28;20088;-65
2022/12/20 02:00:26;;;;;;;23.75;12.30;;;;;;;;;;5016139;28;20581;-65
2022/12/20 02:02:52;;;;;;;22.33;11.73;;;;;;;;;;5002591;28;20050;-65
2022/12/20 02:05:20;;;;;;;25.08;13.50;;;;;;;;;;5017489;28;20045;-66
2022/12/20 02:07:49;;;;;;;17.73;10.52;;;;;;;;;;5001351;28;20042;-66
2022/12/20 02:10:16;;;;;;;24.15;12.65;;;;;;;;;;4993416;28;20057;-66
2022/12/20 02:12:44;;;;;;;20.25;10.98;;;;;;;;;;5016937;28;20058;-66
2022/12/20 02:15:37;;;;;;;22.10;12.25;;;;;;;;;;5002148;28;20067;-66
2022/12/20 02:18:09;;;;;;;23.48;12.07;;;;;;;;;;5006321;28;20042;-66
2022/12/20 02:20:52;;;;;;;24.75;11.77;;;;;;;;;;5009506;28;20050;-66
2022/12/20 02:23:59;;;;;;;33.85;17.83;;;;;;;;;;5002400;28;20075;-65
2022/12/20 02:26:52;;;;;;;21.77;12.23;;;;;;;;;;5011124;28;20042;-66
2022/12/20 02:29:36;;;;;;;22.73;12.25;;;;;;;;;;5015163;28;20089;-66
2022/12/20 02:32:11;;;;;;;21.35;12.27;;;;;;;;;;5016999;28;20049;-66
2022/12/20 02:34:38;;;;;;;21.73;11.80;;;;;;;;;;5032198;28;20068;-65
2022/12/20 02:37:04;;;;;;;29.13;15.52;;;;;;;;;;5001635;28;20049;-64
2022/12/20 02:39:32;;;;;;;28.33;15.13;;;;;;;;;;5014531;28;20156;-65
2022/12/20 02:42:06;;;;;;;24.75;13.55;;;;;;;;;;5016267;28;20050;-65
2022/12/20 02:47:25;;;;;;;26.42;13.95;;;;;;;;;;5016625;28;20034;-66
2022/12/20 02:49:53;;;;;;;24.73;13.40;;;;;;;;;;5001627;28;20192;-65
2022/12/20 02:52:22;;;;;;;25.73;13.48;;;;;;;;;;5014888;28;20041;-64
2022/12/20 02:54:47;;;;;;;28.27;13.10;;;;;;;;;;5001792;28;20050;-65
2022/12/20 02:57:20;;;;;;;20.38;11.85;;;;;;;;;;5001390;28;20046;-65
2022/12/20 03:00:07;;;;;;;20.85;12.15;;;;;;;;;;5016121;28;20046;-65
2022/12/20 03:05:23;;;;;;;20.30;11.27;;;;;;;;;;5000319;28;20041;-65
2022/12/20 03:07:49;;;;;;;22.45;12.38;;;;;;;;;;5001915;28;20042;-65
2022/12/20 03:10:17;;;;;;;24.65;12.90;;;;;;;;;;5015048;28;20050;-66
2022/12/20 03:12:43;;;;;;;25.38;13.50;;;;;;;;;;5015443;28;20050;-64
2022/12/20 03:15:09;;;;;;;26.25;12.57;;;;;;;;;;5015815;28;20038;-65
2022/12/20 03:17:35;;;;;;;21.38;12.32;;;;;;;;;;5016216;28;20127;-66
2022/12/20 03:20:01;;;;;;;29.80;14.50;;;;;;;;;;5015306;28;20507;-65
2022/12/20 03:22:26;;;;;;;23.90;13.48;;;;;;;;;;5015866;28;20060;-65
2022/12/20 03:24:52;;;;;;;28.40;14.70;;;;;;;;;;5014675;28;20049;-65
2022/12/20 03:27:17;;;;;;;23.88;12.45;;;;;;;;;;5016172;28;20449;-65
2022/12/20 03:29:44;;;;;;;25.58;14.38;;;;;;;;;;4999106;28;21016;-65
2022/12/20 03:32:11;;;;;;;20.33;12.05;;;;;;;;;;5015280;28;20145;-65
2022/12/20 03:34:38;;;;;;;21.73;11.50;;;;;;;;;;5014599;28;20128;-65
2022/12/20 03:37:04;;;;;;;21.90;12.20;;;;;;;;;;5000802;28;20561;-66
2022/12/20 03:39:29;;;;;;;20.52;11.93;;;;;;;;;;5015286;28;20565;-66
2022/12/20 03:41:55;;;;;;;20.10;11.73;;;;;;;;;;5015895;28;20045;-65
2022/12/20 03:44:20;;;;;;;22.42;12.55;;;;;;;;;;5000458;28;20049;-65
2022/12/20 03:46:46;;;;;;;25.67;13.63;;;;;;;;;;4998606;28;20049;-65
2022/12/20 03:49:11;;;;;;;31.50;15.38;;;;;;;;;;5000138;28;20095;-65
2022/12/20 03:51:43;;;;;;;20.27;12.60;;;;;;;;;;5006983;28;20038;-66
2022/12/20 03:54:10;;;;;;;25.95;13.73;;;;;;;;;;5015999;28;20049;-66
2022/12/20 03:56:55;;;;;;;29.95;14.73;;;;;;;;;;4999762;28;20834;-66
2022/12/20 03:59:21;;;;;;;24.30;13.15;;;;;;;;;;5015628;28;20053;-69
2022/12/20 04:01:48;;;;;;;22.38;12.77;;;;;;;;;;5000289;28;20121;-65
2022/12/20 04:04:14;;;;;;;25.65;14.98;;;;;;;;;;5014996;28;20475;-67
2022/12/20 04:06:40;;;;;;;23.50;13.13;;;;;;;;;;5015853;28;20562;-65
2022/12/20 04:09:06;;;;;;;25.65;13.05;;;;;;;;;;5010765;28;20145;-67
2022/12/20 04:11:39;;;;;;;27.00;13.75;;;;;;;;;;5014121;28;20042;-66
2022/12/20 04:14:09;;;;;;;28.35;12.88;;;;;;;;;;5015027;28;20100;-66
2022/12/20 04:16:35;;;;;;;21.60;11.88;;;;;;;;;;5012937;28;20566;-66
2022/12/20 04:19:01;;;;;;;21.75;12.50;;;;;;;;;;5012575;28;20057;-65
2022/12/20 04:21:33;;;;;;;21.08;12.27;;;;;;;;;;5015436;28;20181;-66
2022/12/20 04:24:01;;;;;;;21.40;11.52;;;;;;;;;;5015628;28;20041;-65
2022/12/20 04:26:36;;;;;;;23.02;12.02;;;;;;;;;;5035883;28;20112;-65
2022/12/20 04:29:02;;;;;;;20.52;11.18;;;;;;;;;;5014842;28;20049;-66
2022/12/20 04:31:28;;;;;;;20.65;11.48;;;;;;;;;;5012313;28;20042;-65
2022/12/20 04:33:54;;;;;;;22.75;11.05;;;;;;;;;;5004915;28;20455;-65
2022/12/20 04:36:20;;;;;;;24.08;12.27;;;;;;;;;;5013181;28;20678;-67
2022/12/20 04:38:47;;;;;;;20.52;11.73;;;;;;;;;;5014341;28;20109;-66
2022/12/20 04:41:20;;;;;;;19.63;11.60;;;;;;;;;;5013747;28;20060;-66
2022/12/20 04:43:53;;;;;;;16.98;10.38;;;;;;;;;;5015678;28;21113;-65
2022/12/20 04:46:21;;;;;;;22.63;10.80;;;;;;;;;;5013915;28;20041;-65
2022/12/20 04:48:46;;;;;;;18.20;10.60;;;;;;;;;;5015188;28;20129;-65
2022/12/20 04:51:12;;;;;;;17.60;10.85;;;;;;;;;;4998337;28;20160;-65
2022/12/20 04:53:47;;;;;;;19.60;11.85;;;;;;;;;;5015518;28;20081;-65
2022/12/20 04:56:27;;;;;;;19.83;10.15;;;;;;;;;;5014141;28;20045;-65
2022/12/20 04:58:57;;;;;;;25.23;12.73;;;;;;;;;;5000069;28;20185;-65
2022/12/20 05:01:24;;;;;;;21.17;12.32;;;;;;;;;;5003906;28;20041;-66
2022/12/20 05:03:51;;;;;;;29.33;13.90;;;;;;;;;;5010362;28;20113;-66
2022/12/20 05:06:17;;;;;;;26.17;14.20;;;;;;;;;;5017824;28;20082;-66
2022/12/20 05:08:42;;;;;;;20.15;11.88;;;;;;;;;;5018934;28;20239;-68
2022/12/20 05:11:08;;;;;;;21.23;12.65;;;;;;;;;;5017812;28;20397;-67
2022/12/20 05:13:35;;;;;;;20.92;10.90;;;;;;;;;;5001418;28;20533;-68
2022/12/20 05:16:00;;;;;;;21.75;11.23;;;;;;;;;;5002944;28;20133;-69
2022/12/20 05:18:30;;;;;;;18.08;9.82;;;;;;;;;;5016279;28;20058;-69
2022/12/20 05:26:44;;;;;;;18.65;9.82;;;;;;;;;;5027525;28;20068;-67
2022/12/20 05:29:10;;;;;;;14.05;9.13;;;;;;;;;;5014979;28;20470;-67
2022/12/20 05:31:35;;;;;;;18.40;9.13;;;;;;;;;;5016369;28;20038;-67
2022/12/20 05:34:02;;;;;;;14.73;9.02;;;;;;;;;;5016422;28;20034;-66
2022/12/20 05:36:31;;;;;;;16.70;8.95;;;;;;;;;;5014423;28;20129;-67
2022/12/20 05:38:59;;;;;;;15.35;8.75;;;;;;;;;;5014781;28;20645;-67
2022/12/20 05:41:24;;;;;;;16.63;8.43;;;;;;;;;;5001879;28;20157;-68
2022/12/20 05:43:51;;;;;;;17.75;9.15;;;;;;;;;;5017184;28;20099;-68
2022/12/20 05:46:16;;;;;;;15.93;8.93;;;;;;;;;;5014715;28;20057;-67
2022/12/20 05:49:02;;;;;;;15.38;9.05;;;;;;;;;;4998636;28;20045;-70
2022/12/20 05:51:28;;;;;;;14.32;8.68;;;;;;;;;;4998833;28;20042;-68
2022/12/20 05:54:18;;;;;;;13.80;8.52;;;;;;;;;;5015007;28;20133;-68
2022/12/20 05:56:52;;;;;;;12.30;8.10;;;;;;;;;;5014537;28;20046;-68
2022/12/20 05:59:23;;;;;;;14.18;8.77;;;;;;;;;;5011806;28;20049;-68
2022/12/20 06:01:48;;;;;;;14.68;7.95;;;;;;;;;;5015292;28;20045;-69
2022/12/20 06:04:14;;;;;;;15.55;8.75;;;;;;;;;;4999176;28;20129;-68
2022/12/20 06:06:40;;;;;;;16.30;8.85;;;;;;;;;;5003602;28;20057;-68
2022/12/20 06:09:08;;;;;;;13.30;8.18;;;;;;;;;;5013277;28;20514;-68
2022/12/20 06:11:48;;;;;;;14.32;8.68;;;;;;;;;;5015302;28;20487;-68
2022/12/20 06:14:14;;;;;;;15.20;8.50;;;;;;;;;;5015012;28;20046;-69
2022/12/20 06:16:44;;;;;;;8.25;5.63;;;;;;;;;;5015349;28;20084;-68
2022/12/20 06:19:10;;;;;;;13.18;7.53;;;;;;;;;;5014702;28;20046;-68
2022/12/20 06:21:37;;;;;;;12.85;7.82;;;;;;;;;;5016468;28;20050;-68
2022/12/20 06:24:02;;;;;;;13.23;7.78;;;;;;;;;;5016379;28;20052;-68
2022/12/20 06:26:34;;;;;;;13.93;7.88;;;;;;;;;;5001773;28;20052;-68
2022/12/20 06:29:09;;;;;;;10.07;5.90;;;;;;;;;;5014331;28;20057;-68
2022/12/20 06:31:42;;;;;;;16.25;8.75;;;;;;;;;;5011695;28;20054;-68
2022/12/20 06:34:07;;;;;;;14.20;7.68;;;;;;;;;;4998849;28;20050;-68
2022/12/20 06:36:36;;;;;;;14.48;8.88;;;;;;;;;;5015766;28;20539;-70
2022/12/20 06:39:02;;;;;;;14.10;8.25;;;;;;;;;;5000266;28;20065;-70
2022/12/20 06:41:28;;;;;;;15.85;7.63;;;;;;;;;;5015609;28;20045;-68
2022/12/20 06:43:54;;;;;;;13.45;8.60;;;;;;;;;;5001541;28;20046;-68
2022/12/20 06:46:19;;;;;;;13.40;7.70;;;;;;;;;;5016070;28;20061;-70
2022/12/20 06:48:45;;;;;;;14.75;8.50;;;;;;;;;;5016532;28;20069;-69
2022/12/20 06:51:11;;;;;;;15.43;8.77;;;;;;;;;;5016390;28;20119;-69
2022/12/20 06:53:37;;;;;;;13.68;8.25;;;;;;;;;;5015393;28;20426;-69
2022/12/20 06:56:03;;;;;;;15.00;8.48;;;;;;;;;;5016533;28;20128;-69
2022/12/20 06:58:30;;;;;;;16.73;8.75;;;;;;;;;;5000629;28;20132;-69
2022/12/20 07:00:56;;;;;;;15.23;8.70;;;;;;;;;;5000626;28;20251;-69
2022/12/20 07:03:21;;;;;;;13.27;8.38;;;;;;;;;;4999524;28;20037;-69
2022/12/20 07:05:56;;;;;;;11.85;8.02;;;;;;;;;;5001626;28;20045;-70
2022/12/20 07:08:22;;;;;;;16.80;8.98;;;;;;;;;;5000239;28;20438;-69
2022/12/20 07:10:48;;;;;;;16.23;7.85;;;;;;;;;;5000567;28;20061;-69
2022/12/20 07:13:13;;;;;;;13.35;8.10;;;;;;;;;;5001236;28;20045;-70
2022/12/20 07:15:38;;;;;;;16.02;9.10;;;;;;;;;;4999786;28;20935;-69
2022/12/20 07:18:05;;;;;;;15.77;8.50;;;;;;;;;;5001010;28;20045;-70
2022/12/20 07:20:31;;;;;;;15.48;8.63;;;;;;;;;;5000617;28;20060;-69
2022/12/20 07:22:57;;;;;;;12.95;7.78;;;;;;;;;;5001423;28;20049;-70
2022/12/20 07:25:24;;;;;;;15.70;8.48;;;;;;;;;;5014205;28;20069;-70
2022/12/20 07:27:50;;;;;;;17.98;8.65;;;;;;;;;;5000732;28;20046;-69
2022/12/20 07:30:17;;;;;;;12.20;7.50;;;;;;;;;;4999380;28;20050;-71
2022/12/20 07:32:43;;;;;;;14.50;7.95;;;;;;;;;;5001076;28;20046;-69
2022/12/20 07:35:10;;;;;;;14.07;8.20;;;;;;;;;;5000724;28;20422;-68
2022/12/20 07:37:35;;;;;;;12.40;7.22;;;;;;;;;;4999454;28;20052;-70
2022/12/20 07:40:01;;;;;;;13.05;6.90;;;;;;;;;;4999558;28;20406;-68
2022/12/20 07:42:26;;;;;;;15.32;7.22;;;;;;;;;;5000653;28;21034;-69
2022/12/20 07:44:52;;;;;;;11.65;7.50;;;;;;;;;;5015701;28;20143;-70
2022/12/20 07:47:18;;;;;;;15.43;7.55;;;;;;;;;;4999786;28;20543;-68
2022/12/20 07:49:43;;;;;;;9.38;6.00;;;;;;;;;;5001037;28;20052;-69
2022/12/20 07:52:12;;;;;;;7.70;5.65;;;;;;;;;;5000338;28;20048;-69
2022/12/20 07:54:44;;;;;;;14.68;7.68;;;;;;;;;;5000637;28;20139;-68
2022/12/20 07:57:16;;;;;;;11.27;6.97;;;;;;;;;;5016175;28;20495;-69
2022/12/20 07:59:46;;;;;;;14.80;7.68;;;;;;;;;;4997976;28;20054;-69
2022/12/20 08:02:18;;;;;;;10.65;7.18;;;;;;;;;;4999716;28;20089;-69
2022/12/20 08:04:43;;;;;;;10.55;5.85;;;;;;;;;;5000191;28;20145;-69
2022/12/20 08:07:10;;;;;;;10.50;6.93;;;;;;;;;;5000961;28;20054;-69
2022/12/20 08:09:40;;;;;;;12.98;7.25;;;;;;;;;;4998289;28;20406;-69
2022/12/20 08:12:09;;;;;;;11.45;7.28;;;;;;;;;;5000404;28;20050;-69
2022/12/20 08:14:35;;;;;;;8.93;5.65;;;;;;;;;;4999503;28;20057;-68
2022/12/20 08:17:01;;;;;;;14.23;8.07;;;;;;;;;;5000623;28;20148;-70
2022/12/20 08:19:26;;;;;;;12.15;7.10;;;;;;;;;;4999327;28;20434;-69
2022/12/20 08:21:51;;;;;;;9.85;7.35;;;;;;;;;;4999616;28;20461;-69
2022/12/20 08:24:17;;;;;;;13.73;8.52;;;;;;;;;;4999238;28;20482;-69
2022/12/20 08:26:42;;;;;;;14.25;8.68;;;;;;;;;;5000594;28;20058;-69
2022/12/20 08:29:08;;;;;;;15.10;8.55;;;;;;;;;;4999443;28;20104;-70
2022/12/20 08:31:43;;;;;;;15.93;9.55;;;;;;;;;;4998949;28;20065;-68
2022/12/20 08:34:09;;;;;;;15.85;9.50;;;;;;;;;;4999194;28;20569;-70
2022/12/20 08:36:35;;;;;;;19.75;9.15;;;;;;;;;;5000410;28;20407;-69
2022/12/20 08:39:05;;;;;;;16.02;8.75;;;;;;;;;;5016955;28;20127;-70
2022/12/20 08:41:32;;;;;;;18.60;9.60;;;;;;;;;;5004082;28;20046;-70
2022/12/20 08:43:58;;;;;;;13.68;8.75;;;;;;;;;;5002783;28;20061;-69
2022/12/20 08:46:23;;;;;;;16.13;8.80;;;;;;;;;;5002979;28;20144;-69
2022/12/20 08:48:49;;;;;;;15.98;9.32;;;;;;;;;;5004068;28;20042;-71
2022/12/20 08:51:14;;;;;;;13.00;9.10;;;;;;;;;;5003189;28;20533;-70
2022/12/20 08:53:40;;;;;;;14.18;8.77;;;;;;;;;;5002743;28;20046;-70
2022/12/20 08:56:08;;;;;;;14.48;8.80;;;;;;;;;;5003445;28;20041;-69
2022/12/20 08:58:34;;;;;;;17.52;8.73;;;;;;;;;;5003514;28;20042;-70
2022/12/20 09:01:02;;;;;;;14.18;7.70;;;;;;;;;;5002229;28;20189;-70
2022/12/20 09:03:30;;;;;;;9.35;5.43;;;;;;;;;;5003580;28;20095;-69
2022/12/20 09:05:56;;;;;;;10.63;7.15;;;;;;;;;;5002273;28;20049;-70
2022/12/20 09:08:22;;;;;;;13.23;8.48;;;;;;;;;;5003010;28;20225;-70
2022/12/20 09:10:47;;;;;;;15.20;9.10;;;;;;;;;;5002695;28;20137;-70
2022/12/20 09:13:13;;;;;;;13.63;8.77;;;;;;;;;;5003900;28;20058;-71
2022/12/20 09:15:38;;;;;;;15.32;9.45;;;;;;;;;;5001492;28;20084;-69
2022/12/20 09:18:04;;;;;;;15.95;9.50;;;;;;;;;;5002096;28;20052;-71
2022/12/20 09:20:30;;;;;;;11.80;8.65;;;;;;;;;;5002627;28;20050;-71
2022/12/20 09:22:57;;;;;;;14.95;9.05;;;;;;;;;;5003782;28;20418;-71
2022/12/20 09:25:23;;;;;;;14.18;7.82;;;;;;;;;;5002665;28;20059;-70
2022/12/20 09:27:49;;;;;;;15.68;8.77;;;;;;;;;;5002198;28;20088;-70
2022/12/20 09:30:15;;;;;;;15.15;8.95;;;;;;;;;;5001137;28;20066;-70
2022/12/20 09:32:40;;;;;;;14.10;8.95;;;;;;;;;;5003281;28;20042;-70
2022/12/20 09:35:06;;;;;;;15.77;8.93;;;;;;;;;;5002568;28;20136;-71
2022/12/20 09:37:32;;;;;;;15.18;9.02;;;;;;;;;;5002035;28;20050;-70
2022/12/20 09:39:58;;;;;;;12.80;9.10;;;;;;;;;;5001940;28;20414;-71
2022/12/20 09:42:28;;;;;;;13.55;8.23;;;;;;;;;;5002249;28;20042;-71
2022/12/20 09:45:00;;;;;;;11.90;8.30;;;;;;;;;;5002461;28;20050;-70
2022/12/20 09:47:26;;;;;;;;;;;;;;;;;;5018206;28;20566;-71
2022/12/20 09:49:54;;;;;;;11.25;7.55;;;;;;;;;;4999209;28;19925;-71
2022/12/20 09:52:39;;;;;;;13.88;8.02;;;;;;;;;;5002314;28;20046;-70
2022/12/20 09:55:13;;;;;;;11.40;7.90;;;;;;;;;;5002270;28;20406;-72
2022/12/20 09:58:02;;;;;;;11.30;8.07;;;;;;;;;;5002981;28;20136;-71
2022/12/20 10:00:29;;;;;;;11.60;8.25;;;;;;;;;;4998823;28;20058;-71
2022/12/20 10:02:54;;;;;;;14.52;8.73;;;;;;;;;;5002648;28;20045;-71
2022/12/20 10:05:44;;;;;;;12.07;8.13;;;;;;;;;;5002582;28;20072;-69
2022/12/20 10:08:20;;;;;;;12.48;9.30;;;;;;;;;;5001775;28;20042;-69
2022/12/20 10:10:56;;;;;;;12.57;6.75;;;;;;;;;;5000349;28;20054;-69
2022/12/20 10:13:43;;;;;;;16.48;9.13;;;;;;;;;;5002294;28;20060;-69
2022/12/20 10:16:32;;;;;;;15.68;9.48;;;;;;;;;;5001877;28;20041;-69
2022/12/20 10:19:09;;;;;;;12.82;8.00;;;;;;;;;;5028381;28;20054;-69
2022/12/20 10:21:50;;;;;;;14.23;8.55;;;;;;;;;;5000429;28;20057;-69
2022/12/20 10:24:19;;;;;;;16.42;10.05;;;;;;;;;;5000756;28;20129;-69
2022/12/20 10:26:48;;;;;;;14.65;9.35;;;;;;;;;;5002666;28;20077;-71
2022/12/20 10:29:13;;;;;;;16.48;10.05;;;;;;;;;;5001504;28;20080;-68
2022/12/20 10:31:39;;;;;;;13.63;8.80;;;;;;;;;;5001353;28;20096;-69
2022/12/20 10:34:06;;;;;;;18.30;10.45;;;;;;;;;;5000130;28;20461;-69
2022/12/20 10:36:34;;;;;;;17.55;10.20;;;;;;;;;;5001774;28;20049;-69
2022/12/20 10:39:03;;;;;;;17.40;9.73;;;;;;;;;;5001488;28;20085;-69
2022/12/20 10:41:50;;;;;;;16.92;9.70;;;;;;;;;;5000224;28;20507;-69
2022/12/20 10:44:25;;;;;;;16.50;9.27;;;;;;;;;;4999261;28;20081;-68
2022/12/20 10:46:56;;;;;;;14.32;8.93;;;;;;;;;;5001794;28;20517;-71
2022/12/20 10:49:32;;;;;;;13.27;8.85;;;;;;;;;;5000993;28;20156;-69
2022/12/20 10:52:12;;;;;;;14.63;9.45;;;;;;;;;;5001186;28;20041;-69
2022/12/20 10:54:44;;;;;;;14.55;8.45;;;;;;;;;;5030676;28;20054;-70
2022/12/20 10:57:22;;;;;;;12.60;7.90;;;;;;;;;;5001060;28;20073;-68
2022/12/20 10:59:51;;;;;;;14.82;8.63;;;;;;;;;;5000826;28;20050;-67
2022/12/20 11:02:30;;;;;;;9.60;7.10;;;;;;;;;;4999999;28;20049;-68
2022/12/20 11:05:20;;;;;;;12.43;7.45;;;;;;;;;;5001661;28;20149;-67
2022/12/20 11:08:11;;;;;;;14.80;9.02;;;;;;;;;;5001101;28;20045;-67
2022/12/20 11:10:37;;;;;;;13.52;8.68;;;;;;;;;;4999969;28;20056;-67
2022/12/20 11:13:03;;;;;;;14.38;8.93;;;;;;;;;;5014874;28;20054;-67
2022/12/20 11:15:31;;;;;;;11.93;7.35;;;;;;;;;;4999717;28;20049;-67
2022/12/20 11:18:03;;;;;;;11.68;7.85;;;;;;;;;;5001162;28;20144;-68
2022/12/20 11:20:51;;;;;;;12.00;8.13;;;;;;;;;;4998981;28;20103;-67
2022/12/20 11:23:31;;;;;;;12.45;8.15;;;;;;;;;;5001091;28;20061;-67
2022/12/20 11:26:33;;;;;;;12.73;7.75;;;;;;;;;;5001216;28;20041;-68
2022/12/20 11:29:23;;;;;;;9.73;7.20;;;;;;;;;;5012284;28;20056;-68
2022/12/20 11:32:16;;;;;;;12.05;7.35;;;;;;;;;;4999825;28;20133;-66
2022/12/20 11:35:10;;;;;;;10.52;7.10;;;;;;;;;;5029994;28;20049;-68
2022/12/20 11:37:48;;;;;;;12.05;7.43;;;;;;;;;;5013982;28;20411;-68
2022/12/20 11:40:29;;;;;;;11.35;7.25;;;;;;;;;;4998344;28;20050;-68
2022/12/20 11:43:16;;;;;;;11.05;7.22;;;;;;;;;;5000739;28;20499;-69
2022/12/20 11:46:01;;;;;;;11.57;7.57;;;;;;;;;;5000167;28;20052;-68
2022/12/20 11:49:01;;;;;;;8.70;5.53;;;;;;;;;;4998792;28;20136;-66
2022/12/20 11:51:46;;;;;;;11.82;7.72;;;;;;;;;;4999285;28;20099;-68
2022/12/20 11:54:13;;;;;;;14.52;7.75;;;;;;;;;;4999833;28;20037;-68
2022/12/20 11:56:42;;;;;;;11.20;7.30;;;;;;;;;;5000464;28;20048;-69
2022/12/20 11:59:41;;;;;;;10.13;6.78;;;;;;;;;;4999417;28;20120;-68
2022/12/20 12:02:14;;;;;;;10.05;6.80;;;;;;;;;;4998443;28;20045;-70
2022/12/20 12:04:54;;;;;;;;;;;;;;;;;;5031392;28;20137;-69
2022/12/20 12:07:25;;;;;;;11.82;6.78;;;;;;;;;;5000278;28;19917;-69
2022/12/20 12:09:54;;;;;;;9.73;6.22;;;;;;;;;;5000073;28;20414;-67
2022/12/20 12:12:30;;;;;;;12.95;7.22;;;;;;;;;;4997893;28;20046;-67
2022/12/20 12:15:02;;;;;;;11.75;7.97;;;;;;;;;;5000371;28;20145;-67
2022/12/20 12:17:45;;;;;;;16.08;8.60;;;;;;;;;;5000107;28;20052;-67
2022/12/20 12:20:20;;;;;;;10.63;7.25;;;;;;;;;;5013784;28;21020;-67
2022/12/20 12:22:48;;;;;;;10.10;7.45;;;;;;;;;;5014316;28;20412;-67
2022/12/20 12:25:16;;;;;;;12.15;7.82;;;;;;;;;;4999621;28;20041;-68
2022/12/20 12:27:42;;;;;;;12.07;7.70;;;;;;;;;;5000284;28;20053;-69
2022/12/20 12:30:14;;;;;;;13.85;7.60;;;;;;;;;;4999102;28;20049;-69
2022/12/20 12:32:46;;;;;;;15.80;9.57;;;;;;;;;;5029263;28;20056;-68
2022/12/20 12:35:30;;;;;;;13.13;8.75;;;;;;;;;;4999591;28;20061;-68
2022/12/20 12:38:15;;;;;;;11.75;8.10;;;;;;;;;;4997881;28;20053;-69
2022/12/20 12:41:25;;;;;;;14.63;8.52;;;;;;;;;;5013835;28;20054;-69
2022/12/20 12:43:58;;;;;;;11.48;8.20;;;;;;;;;;4996350;28;20706;-69
2022/12/20 12:46:28;;;;;;;13.02;8.15;;;;;;;;;;4995511;28;20049;-67
2022/12/20 12:48:54;;;;;;;17.60;8.95;;;;;;;;;;4987768;28;20042;-67
2022/12/20 12:51:33;;;;;;;13.80;8.25;;;;;;;;;;4997290;28;20108;-67
2022/12/20 12:54:07;;;;;;;13.57;8.88;;;;;;;;;;4996313;28;20751;-66
2022/12/20 12:56:39;;;;;;;15.73;8.52;;;;;;;;;;4994663;28;20064;-67
2022/12/20 12:59:04;;;;;;;12.77;8.52;;;;;;;;;;4997407;28;20050;-66
2022/12/20 13:01:47;;;;;;;12.82;8.95;;;;;;;;;;4997416;28;20053;-67
2022/12/20 13:04:24;;;;;;;13.77;8.75;;;;;;;;;;4998339;28;20050;-67
2022/12/20 13:06:49;;;;;;;14.50;9.18;;;;;;;;;;4997453;28;20042;-69
2022/12/20 13:09:23;;;;;;;13.73;8.95;;;;;;;;;;4998489;28;20428;-69
2022/12/20 13:11:50;;;;;;;14.48;9.57;;;;;;;;;;4994248;28;20057;-69
2022/12/20 13:14:15;;;;;;;17.35;10.23;;;;;;;;;;4996120;28;20084;-68
2022/12/20 13:16:41;;;;;;;15.05;9.80;;;;;;;;;;4995397;28;20137;-68
2022/12/20 13:19:24;;;;;;;17.48;10.15;;;;;;;;;;4997910;28;20077;-66
2022/12/20 13:22:06;;;;;;;16.60;9.73;;;;;;;;;;4998811;28;20054;-66
2022/12/20 13:25:24;;;;;;;22.63;11.23;;;;;;;;;;4999663;28;20054;-66
2022/12/20 13:27:49;;;;;;;18.85;10.73;;;;;;;;;;4992200;28;20136;-66
2022/12/20 13:30:17;;;;;;;15.20;10.45;;;;;;;;;;5000703;28;20586;-66
2022/12/20 13:32:45;;;;;;;17.05;10.68;;;;;;;;;;5001415;28;20133;-66
2022/12/20 13:35:23;;;;;;;19.08;11.05;;;;;;;;;;5001193;28;20052;-66
2022/12/20 13:38:03;;;;;;;17.45;11.05;;;;;;;;;;4996596;28;20049;-66
2022/12/20 13:41:08;;;;;;;23.60;11.05;;;;;;;;;;4998713;28;20049;-66
2022/12/20 13:43:41;;;;;;;15.35;10.45;;;;;;;;;;4990531;28;20053;-65
2022/12/20 13:46:09;;;;;;;16.40;9.93;;;;;;;;;;5016603;28;20129;-66
2022/12/20 13:48:37;;;;;;;16.52;9.88;;;;;;;;;;5001393;28;20125;-67
2022/12/20 13:51:04;;;;;;;15.55;9.63;;;;;;;;;;4998286;28;20060;-66
2022/12/20 13:53:30;;;;;;;16.50;9.43;;;;;;;;;;5001467;28;20132;-66
2022/12/20 13:55:56;;;;;;;18.73;10.57;;;;;;;;;;5001767;28;20153;-67
2022/12/20 13:58:26;;;;;;;14.93;9.52;;;;;;;;;;5001026;28;20062;-65
2022/12/20 14:00:52;;;;;;;14.52;9.15;;;;;;;;;;4999392;28;20483;-69
2022/12/20 14:03:27;;;;;;;13.25;8.60;;;;;;;;;;5001315;28;20054;-68
2022/12/20 14:06:01;;;;;;;20.35;11.50;;;;;;;;;;5001570;28;20088;-70
2022/12/20 14:08:36;;;;;;;16.02;10.40;;;;;;;;;;5000328;28;20411;-69
2022/12/20 14:11:21;;;;;;;18.30;11.15;;;;;;;;;;4998171;28;20279;-67
2022/12/20 14:14:01;;;;;;;19.02;10.88;;;;;;;;;;5000094;28;20156;-65
2022/12/20 14:16:30;;;;;;;15.75;9.90;;;;;;;;;;5000693;28;20058;-66
2022/12/20 14:18:55;;;;;;;18.17;11.18;;;;;;;;;;5001854;28;20054;-67
2022/12/20 14:21:22;;;;;;;18.60;10.63;;;;;;;;;;5001045;28;20061;-66
2022/12/20 14:23:50;;;;;;;17.40;10.63;;;;;;;;;;4999613;28;20146;-67
2022/12/20 14:26:20;;;;;;;19.45;11.43;;;;;;;;;;5000033;28;20089;-69
2022/12/20 14:28:48;;;;;;;18.50;12.50;;;;;;;;;;5001242;28;20040;-67
2022/12/20 14:31:36;;;;;;;17.90;11.80;;;;;;;;;;4998700;28;20107;-69
2022/12/20 14:34:07;;;;;;;19.05;11.52;;;;;;;;;;4997782;28;20045;-66
2022/12/20 14:36:34;;;;;;;19.40;11.35;;;;;;;;;;5001025;28;20054;-66
2022/12/20 14:39:00;;;;;;;19.23;11.75;;;;;;;;;;5001577;28;20045;-67
2022/12/20 14:41:36;;;;;;;19.85;12.10;;;;;;;;;;5001037;28;20050;-66
2022/12/20 14:44:05;;;;;;;19.48;11.32;;;;;;;;;;5001799;28;20068;-67
2022/12/20 14:46:33;;;;;;;18.30;11.18;;;;;;;;;;5000416;28;20057;-68
2022/12/20 14:49:18;;;;;;;19.42;11.63;;;;;;;;;;5001662;28;20038;-67
2022/12/20 14:51:45;;;;;;;24.63;12.20;;;;;;;;;;5001680;28;20053;-69
2022/12/20 14:54:17;;;;;;;21.02;12.82;;;;;;;;;;4999950;28;20495;-71
2022/12/20 14:56:46;;;;;;;;;;;;;;;;;;4996737;28;20054;-69
2022/12/20 14:59:23;;;;;;;23.58;14.10;;;;;;;;;;5001075;28;19925;-69